createdAt,value
2018-01-21T00:00:43.053Z,996.86
2018-01-21T00:01:43.031Z,996.95
2018-01-21T00:02:43.053Z,996.93
2018-01-21T00:03:42.985Z,996.96
2018-01-21T00:04:42.960Z,996.98
2018-01-21T00:05:42.942Z,997.01
2018-01-21T00:06:42.922Z,996.98
2018-01-21T00:07:42.900Z,997.00
2018-01-21T00:08:42.868Z,996.95
2018-01-21T00:09:42.850Z,996.95
2018-01-21T00:10:42.828Z,996.97
2018-01-21T00:11:42.801Z,997.00
2018-01-21T00:12:42.779Z,997.02
2018-01-21T00:13:42.777Z,997.03
2018-01-21T00:14:42.737Z,997.06
2018-01-21T00:15:42.719Z,997.08
2018-01-21T00:16:42.700Z,997.13
2018-01-21T00:17:42.681Z,997.14
2018-01-21T00:18:42.653Z,997.15
2018-01-21T00:19:42.633Z,997.16
2018-01-21T00:20:42.609Z,997.20
2018-01-21T00:21:42.599Z,997.22
2018-01-21T00:22:42.566Z,997.29
2018-01-21T00:23:42.547Z,997.30
2018-01-21T00:24:42.520Z,997.36
2018-01-21T00:25:42.505Z,997.35
2018-01-21T00:26:42.480Z,997.37
2018-01-21T00:27:42.454Z,997.38
2018-01-21T00:28:42.433Z,997.40
2018-01-21T00:29:42.411Z,997.40
2018-01-21T00:30:42.387Z,997.40
2018-01-21T00:31:42.370Z,997.45
2018-01-21T00:32:42.344Z,997.46
2018-01-21T00:33:42.331Z,997.42
2018-01-21T00:34:42.303Z,997.47
2018-01-21T00:35:42.279Z,997.47
2018-01-21T00:36:42.264Z,997.50
2018-01-21T00:37:42.238Z,997.52
2018-01-21T00:38:42.219Z,997.53
2018-01-21T00:39:42.199Z,997.55
2018-01-21T00:40:42.169Z,997.56
2018-01-21T00:41:42.160Z,997.58
2018-01-21T00:42:42.127Z,997.58
2018-01-21T00:43:42.109Z,997.60
2018-01-21T00:44:42.086Z,997.59
2018-01-21T00:45:42.068Z,997.61
2018-01-21T00:46:42.051Z,997.65
2018-01-21T00:47:42.036Z,997.66
2018-01-21T00:48:41.999Z,997.70
2018-01-21T00:49:41.981Z,997.74
2018-01-21T00:50:41.964Z,997.76
2018-01-21T00:51:41.940Z,997.74
2018-01-21T00:52:41.914Z,997.75
2018-01-21T00:53:41.890Z,997.77
2018-01-21T00:54:41.869Z,997.79
2018-01-21T00:55:41.859Z,997.80
2018-01-21T00:56:41.833Z,997.81
2018-01-21T00:57:41.806Z,997.87
2018-01-21T00:58:41.788Z,997.84
2018-01-21T00:59:41.772Z,997.87
2018-01-21T01:00:41.791Z,997.91
2018-01-21T01:01:41.720Z,997.91
2018-01-21T01:02:41.791Z,997.91
2018-01-21T01:03:41.672Z,997.89
2018-01-21T01:04:41.659Z,997.89
2018-01-21T01:05:41.633Z,997.93
2018-01-21T01:06:41.619Z,997.95
2018-01-21T01:07:41.592Z,998.00
2018-01-21T01:08:41.583Z,998.03
2018-01-21T01:09:41.560Z,998.11
2018-01-21T01:10:41.526Z,998.17
2018-01-21T01:11:41.500Z,998.18
2018-01-21T01:12:41.479Z,998.22
2018-01-21T01:13:41.459Z,998.27
2018-01-21T01:14:41.440Z,998.27
2018-01-21T01:15:41.414Z,998.25
2018-01-21T01:16:41.401Z,998.29
2018-01-21T01:17:41.390Z,998.33
2018-01-21T01:18:41.350Z,998.38
2018-01-21T01:19:41.330Z,998.42
2018-01-21T01:20:41.310Z,998.44
2018-01-21T01:21:41.290Z,998.44
2018-01-21T01:22:41.264Z,998.41
2018-01-21T01:23:41.252Z,998.40
2018-01-21T01:24:41.220Z,998.41
2018-01-21T01:25:41.198Z,998.41
2018-01-21T01:26:41.176Z,998.47
2018-01-21T01:27:41.156Z,998.49
2018-01-21T01:28:41.138Z,998.48
2018-01-21T01:29:41.116Z,998.52
2018-01-21T01:30:41.089Z,998.53
2018-01-21T01:31:41.070Z,998.49
2018-01-21T01:32:41.051Z,998.51
2018-01-21T01:33:41.029Z,998.48
2018-01-21T01:34:41.001Z,998.43
2018-01-21T01:35:40.985Z,998.44
2018-01-21T01:36:40.970Z,998.41
2018-01-21T01:37:40.940Z,998.46
2018-01-21T01:38:40.919Z,998.50
2018-01-21T01:39:40.901Z,998.57
2018-01-21T01:40:40.880Z,998.56
2018-01-21T01:41:40.855Z,998.64
2018-01-21T01:42:40.841Z,998.66
2018-01-21T01:43:40.811Z,998.66
2018-01-21T01:44:40.789Z,998.72
2018-01-21T01:45:40.772Z,998.73
2018-01-21T01:46:40.749Z,998.75
2018-01-21T01:47:40.728Z,998.79
2018-01-21T01:48:40.705Z,998.79
2018-01-21T01:49:40.690Z,998.86
2018-01-21T01:50:40.661Z,998.85
2018-01-21T01:51:40.639Z,998.86
2018-01-21T01:52:40.621Z,998.88
2018-01-21T01:53:40.600Z,998.89
2018-01-21T01:54:40.576Z,998.90
2018-01-21T01:55:40.550Z,998.99
2018-01-21T01:56:40.528Z,998.95
2018-01-21T01:57:40.507Z,998.98
2018-01-21T01:58:40.488Z,999.00
2018-01-21T01:59:40.462Z,999.03
2018-01-21T02:00:40.452Z,999.04
2018-01-21T02:01:40.418Z,999.06
2018-01-21T02:02:40.399Z,999.06
2018-01-21T02:03:40.380Z,999.12
2018-01-21T02:04:40.360Z,999.12
2018-01-21T02:05:40.342Z,999.19
2018-01-21T02:06:40.320Z,999.21
2018-01-21T02:07:40.290Z,999.24
2018-01-21T02:08:40.270Z,999.26
2018-01-21T02:09:40.252Z,999.27
2018-01-21T02:10:40.230Z,999.26
2018-01-21T02:11:40.204Z,999.29
2018-01-21T02:12:40.184Z,999.28
2018-01-21T02:13:40.168Z,999.29
2018-01-21T02:14:40.140Z,999.31
2018-01-21T02:15:40.119Z,999.28
2018-01-21T02:16:40.095Z,999.36
2018-01-21T02:17:40.078Z,999.37
2018-01-21T02:18:40.051Z,999.39
2018-01-21T02:19:40.030Z,999.43
2018-01-21T02:20:40.010Z,999.45
2018-01-21T02:21:39.989Z,999.47
2018-01-21T02:22:39.963Z,999.53
2018-01-21T02:23:39.949Z,999.52
2018-01-21T02:24:39.923Z,999.56
2018-01-21T02:25:39.899Z,999.61
2018-01-21T02:26:39.877Z,999.59
2018-01-21T02:27:39.857Z,999.61
2018-01-21T02:28:39.841Z,999.61
2018-01-21T02:29:39.815Z,999.64
2018-01-21T02:30:39.800Z,999.69
2018-01-21T02:31:39.773Z,999.69
2018-01-21T02:32:39.749Z,999.71
2018-01-21T02:33:39.725Z,999.75
2018-01-21T02:34:39.703Z,999.77
2018-01-21T02:35:39.684Z,999.75
2018-01-21T02:36:39.662Z,999.78
2018-01-21T02:37:39.639Z,999.81
2018-01-21T02:38:39.620Z,999.76
2018-01-21T02:39:39.600Z,999.76
2018-01-21T02:40:39.582Z,999.83
2018-01-21T02:41:39.555Z,999.82
2018-01-21T02:42:39.530Z,999.86
2018-01-21T02:43:39.511Z,999.89
2018-01-21T02:44:39.487Z,999.89
2018-01-21T02:45:39.465Z,999.88
2018-01-21T02:46:39.450Z,999.90
2018-01-21T02:47:39.430Z,999.93
2018-01-21T02:48:39.401Z,999.94
2018-01-21T02:49:39.378Z,999.97
2018-01-21T02:50:39.359Z,1000.01
2018-01-21T02:51:39.332Z,999.96
2018-01-21T02:52:39.318Z,999.98
2018-01-21T02:53:39.293Z,1000.02
2018-01-21T02:54:39.268Z,1000.04
2018-01-21T02:55:39.266Z,1000.04
2018-01-21T02:56:39.226Z,1000.04
2018-01-21T02:57:39.206Z,1000.04
2018-01-21T02:58:39.180Z,1000.06
2018-01-21T02:59:39.158Z,1000.05
2018-01-21T03:00:39.138Z,1000.08
2018-01-21T03:01:39.117Z,1000.11
2018-01-21T03:02:39.099Z,1000.07
2018-01-21T03:03:39.069Z,1000.14
2018-01-21T03:04:39.048Z,1000.16
2018-01-21T03:05:39.029Z,1000.18
2018-01-21T03:06:39.005Z,1000.20
2018-01-21T03:07:38.983Z,1000.23
2018-01-21T03:08:38.962Z,1000.26
2018-01-21T03:09:38.938Z,1000.26
2018-01-21T03:10:38.918Z,1000.27
2018-01-21T03:11:38.896Z,1000.29
2018-01-21T03:12:38.878Z,1000.30
2018-01-21T03:13:38.851Z,1000.30
2018-01-21T03:14:38.829Z,1000.31
2018-01-21T03:15:38.810Z,1000.35
2018-01-21T03:16:38.789Z,1000.35
2018-01-21T03:17:38.768Z,1000.38
2018-01-21T03:18:38.742Z,1000.40
2018-01-21T03:19:38.722Z,1000.43
2018-01-21T03:20:38.697Z,1000.43
2018-01-21T03:21:38.676Z,1000.44
2018-01-21T03:22:38.653Z,1000.48
2018-01-21T03:23:38.635Z,1000.46
2018-01-21T03:24:38.628Z,1000.46
2018-01-21T03:25:38.638Z,1000.49
2018-01-21T03:26:38.569Z,1000.52
2018-01-21T03:27:38.569Z,1000.50
2018-01-21T03:28:38.525Z,1000.45
2018-01-21T03:29:38.510Z,1000.46
2018-01-21T03:30:38.480Z,1000.52
2018-01-21T03:31:38.561Z,1000.57
2018-01-21T03:32:38.438Z,1000.65
2018-01-21T03:33:38.516Z,1000.63
2018-01-21T03:34:38.399Z,1000.64
2018-01-21T03:35:38.470Z,1000.65
2018-01-21T03:36:38.349Z,1000.69
2018-01-21T03:37:38.430Z,1000.68
2018-01-21T03:38:38.306Z,1000.73
2018-01-21T03:39:38.286Z,1000.73
2018-01-21T03:40:38.262Z,1000.74
2018-01-21T03:41:38.442Z,1000.77
2018-01-21T03:42:38.220Z,1000.78
2018-01-21T03:43:38.246Z,1000.80
2018-01-21T03:44:38.173Z,1000.83
2018-01-21T03:45:38.156Z,1000.85
2018-01-21T03:46:38.131Z,1000.89
2018-01-21T03:47:38.107Z,1000.89
2018-01-21T03:48:38.100Z,1000.96
2018-01-21T03:49:38.067Z,1000.98
2018-01-21T03:50:38.039Z,1001.03
2018-01-21T03:51:38.023Z,1001.04
2018-01-21T03:52:37.999Z,1001.00
2018-01-21T03:53:37.980Z,1001.07
2018-01-21T03:54:37.959Z,1001.09
2018-01-21T03:55:37.939Z,1001.11
2018-01-21T03:56:37.910Z,1001.13
2018-01-21T03:57:37.887Z,1001.13
2018-01-21T03:58:37.870Z,1001.10
2018-01-21T03:59:37.846Z,1001.14
2018-01-21T04:00:37.820Z,1001.13
2018-01-21T04:01:37.808Z,1001.08
2018-01-21T04:02:37.775Z,1001.09
2018-01-21T04:03:37.826Z,1001.11
2018-01-21T04:04:37.729Z,1001.14
2018-01-21T04:05:37.707Z,1001.16
2018-01-21T04:06:37.687Z,1001.15
2018-01-21T04:07:37.689Z,1001.16
2018-01-21T04:08:37.639Z,1001.20
2018-01-21T04:09:37.623Z,1001.17
2018-01-21T04:10:37.599Z,1001.18
2018-01-21T04:11:37.582Z,1001.17
2018-01-21T04:12:37.556Z,1001.21
2018-01-21T04:13:37.527Z,1001.22
2018-01-21T04:14:37.510Z,1001.25
2018-01-21T04:15:37.492Z,1001.25
2018-01-21T04:16:37.467Z,1001.26
2018-01-21T04:17:37.439Z,1001.27
2018-01-21T04:18:37.424Z,1001.29
2018-01-21T04:19:37.399Z,1001.30
2018-01-21T04:20:37.380Z,1001.34
2018-01-21T04:21:37.349Z,1001.36
2018-01-21T04:22:37.327Z,1001.40
2018-01-21T04:23:37.309Z,1001.43
2018-01-21T04:24:37.283Z,1001.44
2018-01-21T04:25:37.261Z,1001.44
2018-01-21T04:26:37.239Z,1001.45
2018-01-21T04:27:37.219Z,1001.45
2018-01-21T04:28:37.207Z,1001.42
2018-01-21T04:29:37.173Z,1001.45
2018-01-21T04:30:37.149Z,1001.49
2018-01-21T04:31:37.132Z,1001.47
2018-01-21T04:32:37.108Z,1001.48
2018-01-21T04:33:37.082Z,1001.55
2018-01-21T04:34:37.071Z,1001.56
2018-01-21T04:35:37.040Z,1001.54
2018-01-21T04:36:37.019Z,1001.61
2018-01-21T04:37:36.992Z,1001.67
2018-01-21T04:38:36.975Z,1001.69
2018-01-21T04:39:36.951Z,1001.67
2018-01-21T04:40:36.930Z,1001.69
2018-01-21T04:41:36.902Z,1001.80
2018-01-21T04:42:36.878Z,1001.80
2018-01-21T04:43:36.859Z,1001.82
2018-01-21T04:44:36.834Z,1001.84
2018-01-21T04:45:36.815Z,1001.80
2018-01-21T04:46:36.789Z,1001.82
2018-01-21T04:47:36.769Z,1001.81
2018-01-21T04:48:36.749Z,1001.85
2018-01-21T04:49:36.729Z,1001.89
2018-01-21T04:50:36.699Z,1001.87
2018-01-21T04:51:36.676Z,1001.90
2018-01-21T04:52:36.657Z,1001.94
2018-01-21T04:53:36.637Z,1001.97
2018-01-21T04:54:36.616Z,1001.95
2018-01-21T04:55:36.588Z,1001.98
2018-01-21T04:56:36.569Z,1002.02
2018-01-21T04:57:36.549Z,1002.07
2018-01-21T04:58:36.520Z,1002.08
2018-01-21T04:59:36.499Z,1002.07
2018-01-21T05:00:36.483Z,1002.11
2018-01-21T05:01:36.451Z,1002.13
2018-01-21T05:02:36.429Z,1002.14
2018-01-21T05:03:36.406Z,1002.19
2018-01-21T05:04:36.385Z,1002.12
2018-01-21T05:05:36.363Z,1002.13
2018-01-21T05:06:36.342Z,1002.18
2018-01-21T05:07:36.319Z,1002.18
2018-01-21T05:08:36.297Z,1002.25
2018-01-21T05:09:36.272Z,1002.20
2018-01-21T05:10:36.249Z,1002.23
2018-01-21T05:11:36.230Z,1002.24
2018-01-21T05:12:36.210Z,1002.30
2018-01-21T05:13:36.188Z,1002.27
2018-01-21T05:14:36.157Z,1002.30
2018-01-21T05:15:36.137Z,1002.31
2018-01-21T05:16:36.116Z,1002.31
2018-01-21T05:17:36.099Z,1002.33
2018-01-21T05:18:36.070Z,1002.35
2018-01-21T05:19:36.051Z,1002.36
2018-01-21T05:20:36.032Z,1002.36
2018-01-21T05:21:35.998Z,1002.43
2018-01-21T05:22:35.980Z,1002.42
2018-01-21T05:23:35.961Z,1002.38
2018-01-21T05:24:35.941Z,1002.40
2018-01-21T05:25:35.919Z,1002.42
2018-01-21T05:26:35.886Z,1002.38
2018-01-21T05:27:35.874Z,1002.38
2018-01-21T05:28:35.846Z,1002.42
2018-01-21T05:29:35.820Z,1002.44
2018-01-21T05:30:35.804Z,1002.45
2018-01-21T05:31:35.781Z,1002.48
2018-01-21T05:33:35.734Z,1002.44
2018-01-21T05:34:35.705Z,1002.50
2018-01-21T05:35:35.688Z,1002.45
2018-01-21T05:36:35.663Z,1002.51
2018-01-21T05:37:35.639Z,1002.51
2018-01-21T05:38:35.620Z,1002.47
2018-01-21T05:39:35.599Z,1002.46
2018-01-21T05:40:35.571Z,1002.48
2018-01-21T05:41:35.550Z,1002.56
2018-01-21T05:42:35.526Z,1002.56
2018-01-21T05:43:35.508Z,1002.59
2018-01-21T05:44:35.489Z,1002.57
2018-01-21T05:45:35.460Z,1002.61
2018-01-21T05:46:35.439Z,1002.63
2018-01-21T05:47:35.414Z,1002.64
2018-01-21T05:48:35.400Z,1002.66
2018-01-21T05:49:35.371Z,1002.70
2018-01-21T05:50:35.349Z,1002.74
2018-01-21T05:51:35.331Z,1002.72
2018-01-21T05:52:35.309Z,1002.74
2018-01-21T05:53:35.279Z,1002.77
2018-01-21T05:54:35.361Z,1002.75
2018-01-21T05:55:35.240Z,1002.76
2018-01-21T05:56:35.308Z,1002.76
2018-01-21T05:57:35.189Z,1002.80
2018-01-21T05:58:35.216Z,1002.80
2018-01-21T05:59:35.143Z,1002.83
2018-01-21T06:00:35.165Z,1002.83
2018-01-21T06:01:35.097Z,1002.81
2018-01-21T06:02:35.080Z,1002.83
2018-01-21T06:03:35.055Z,1002.87
2018-01-21T06:04:35.085Z,1002.86
2018-01-21T06:05:35.007Z,1002.85
2018-01-21T06:06:35.081Z,1002.88
2018-01-21T06:07:34.961Z,1002.85
2018-01-21T06:08:34.938Z,1002.87
2018-01-21T06:09:34.919Z,1002.88
2018-01-21T06:10:34.899Z,1002.92
2018-01-21T06:11:34.869Z,1002.92
2018-01-21T06:12:34.848Z,1002.94
2018-01-21T06:13:34.825Z,1002.94
2018-01-21T06:14:34.810Z,1002.98
2018-01-21T06:15:34.780Z,1003.01
2018-01-21T06:16:34.759Z,1003.02
2018-01-21T06:17:34.738Z,1003.08
2018-01-21T06:18:34.713Z,1003.10
2018-01-21T06:19:34.690Z,1003.10
2018-01-21T06:20:34.669Z,1003.12
2018-01-21T06:21:34.650Z,1003.14
2018-01-21T06:22:34.639Z,1003.18
2018-01-21T06:23:34.598Z,1003.19
2018-01-21T06:24:34.579Z,1003.21
2018-01-21T06:25:34.559Z,1003.25
2018-01-21T06:26:34.636Z,1003.26
2018-01-21T06:27:34.510Z,1003.29
2018-01-21T06:28:34.496Z,1003.29
2018-01-21T06:29:34.464Z,1003.28
2018-01-21T06:30:34.440Z,1003.31
2018-01-21T06:31:34.419Z,1003.32
2018-01-21T06:32:34.402Z,1003.31
2018-01-21T06:33:34.380Z,1003.40
2018-01-21T06:34:34.349Z,1003.42
2018-01-21T06:35:34.329Z,1003.43
2018-01-21T06:36:34.308Z,1003.48
2018-01-21T06:37:34.281Z,1003.46
2018-01-21T06:38:34.256Z,1003.50
2018-01-21T06:39:34.240Z,1003.55
2018-01-21T06:40:34.212Z,1003.53
2018-01-21T06:41:34.188Z,1003.60
2018-01-21T06:42:34.171Z,1003.55
2018-01-21T06:43:34.144Z,1003.59
2018-01-21T06:44:34.124Z,1003.61
2018-01-21T06:45:34.102Z,1003.62
2018-01-21T06:46:34.078Z,1003.66
2018-01-21T06:47:34.054Z,1003.66
2018-01-21T06:48:34.030Z,1003.72
2018-01-21T06:49:34.008Z,1003.80
2018-01-21T06:50:33.986Z,1003.81
2018-01-21T06:51:33.960Z,1003.78
2018-01-21T06:52:33.939Z,1003.82
2018-01-21T06:53:33.919Z,1003.88
2018-01-21T06:54:33.896Z,1003.96
2018-01-21T06:55:33.872Z,1003.93
2018-01-21T06:56:33.850Z,1003.94
2018-01-21T06:57:33.827Z,1003.90
2018-01-21T06:58:33.813Z,1003.92
2018-01-21T06:59:33.786Z,1003.94
2018-01-21T07:00:33.759Z,1003.99
2018-01-21T07:01:33.738Z,1003.97
2018-01-21T07:02:33.715Z,1003.98
2018-01-21T07:03:33.693Z,1004.02
2018-01-21T07:04:33.673Z,1004.07
2018-01-21T07:05:33.652Z,1004.04
2018-01-21T07:06:33.628Z,1004.09
2018-01-21T07:07:33.604Z,1004.10
2018-01-21T07:08:33.580Z,1004.17
2018-01-21T07:09:33.558Z,1004.18
2018-01-21T07:10:33.547Z,1004.21
2018-01-21T07:11:33.518Z,1004.26
2018-01-21T07:12:33.491Z,1004.27
2018-01-21T07:13:33.467Z,1004.26
2018-01-21T07:14:33.443Z,1004.28
2018-01-21T07:15:33.420Z,1004.29
2018-01-21T07:16:33.401Z,1004.26
2018-01-21T07:17:33.376Z,1004.26
2018-01-21T07:18:33.379Z,1004.35
2018-01-21T07:19:33.331Z,1004.36
2018-01-21T07:20:33.307Z,1004.43
2018-01-21T07:21:33.290Z,1004.43
2018-01-21T07:22:33.262Z,1004.42
2018-01-21T07:23:33.241Z,1004.43
2018-01-21T07:24:33.218Z,1004.44
2018-01-21T07:25:33.199Z,1004.47
2018-01-21T07:26:33.177Z,1004.52
2018-01-21T07:27:33.149Z,1004.53
2018-01-21T07:28:33.131Z,1004.56
2018-01-21T07:29:33.119Z,1004.58
2018-01-21T07:30:33.090Z,1004.63
2018-01-21T07:31:33.061Z,1004.63
2018-01-21T07:32:33.040Z,1004.69
2018-01-21T07:33:33.020Z,1004.72
2018-01-21T07:34:32.998Z,1004.70
2018-01-21T07:35:32.971Z,1004.75
2018-01-21T07:36:32.951Z,1004.80
2018-01-21T07:37:32.929Z,1004.79
2018-01-21T07:38:32.901Z,1004.78
2018-01-21T07:39:32.878Z,1004.83
2018-01-21T07:40:32.862Z,1004.86
2018-01-21T07:41:32.836Z,1004.91
2018-01-21T07:42:32.819Z,1004.90
2018-01-21T07:43:32.791Z,1004.92
2018-01-21T07:44:32.770Z,1004.97
2018-01-21T07:45:32.749Z,1005.00
2018-01-21T07:46:32.725Z,1005.02
2018-01-21T07:47:32.701Z,1005.03
2018-01-21T07:48:32.679Z,1005.09
2018-01-21T07:49:32.659Z,1005.09
2018-01-21T07:50:32.641Z,1005.16
2018-01-21T07:51:32.615Z,1005.16
2018-01-21T07:52:32.589Z,1005.16
2018-01-21T07:53:32.569Z,1005.18
2018-01-21T07:54:32.550Z,1005.22
2018-01-21T07:55:32.528Z,1005.28
2018-01-21T07:56:32.503Z,1005.33
2018-01-21T07:57:32.480Z,1005.30
2018-01-21T07:58:32.465Z,1005.32
2018-01-21T07:59:32.436Z,1005.38
2018-01-21T08:00:32.420Z,1005.39
2018-01-21T08:01:32.400Z,1005.41
2018-01-21T08:02:32.368Z,1005.41
2018-01-21T08:03:32.346Z,1005.44
2018-01-21T08:04:32.332Z,1005.48
2018-01-21T08:05:32.305Z,1005.49
2018-01-21T08:06:32.278Z,1005.53
2018-01-21T08:07:32.259Z,1005.50
2018-01-21T08:08:32.236Z,1005.53
2018-01-21T08:09:32.240Z,1005.59
2018-01-21T08:10:32.203Z,1005.63
2018-01-21T08:11:32.170Z,1005.62
2018-01-21T08:12:32.146Z,1005.64
2018-01-21T08:13:32.131Z,1005.63
2018-01-21T08:14:32.120Z,1005.61
2018-01-21T08:15:32.091Z,1005.67
2018-01-21T08:16:32.059Z,1005.65
2018-01-21T08:17:32.042Z,1005.68
2018-01-21T08:18:32.030Z,1005.68
2018-01-21T08:19:32.050Z,1005.68
2018-01-21T08:20:31.970Z,1005.70
2018-01-21T08:21:32.000Z,1005.76
2018-01-21T08:22:31.928Z,1005.78
2018-01-21T08:23:31.910Z,1005.81
2018-01-21T08:24:31.887Z,1005.83
2018-01-21T08:25:32.020Z,1005.88
2018-01-21T08:26:31.840Z,1005.88
2018-01-21T08:27:31.820Z,1005.91
2018-01-21T08:28:31.800Z,1005.93
2018-01-21T08:29:31.830Z,1005.92
2018-01-21T08:30:31.760Z,1005.93
2018-01-21T08:31:31.830Z,1005.94
2018-01-21T08:32:31.709Z,1006.01
2018-01-21T08:33:31.688Z,1005.97
2018-01-21T08:34:31.672Z,1006.00
2018-01-21T08:35:31.709Z,1005.99
2018-01-21T08:36:31.621Z,1005.96
2018-01-21T08:37:31.627Z,1006.00
2018-01-21T08:38:31.582Z,1006.01
2018-01-21T08:39:31.557Z,1006.04
2018-01-21T08:40:31.599Z,1006.05
2018-01-21T08:41:31.521Z,1006.09
2018-01-21T08:42:31.489Z,1006.14
2018-01-21T08:43:31.469Z,1006.17
2018-01-21T08:44:31.457Z,1006.18
2018-01-21T08:45:31.430Z,1006.20
2018-01-21T08:46:31.401Z,1006.18
2018-01-21T08:47:31.489Z,1006.17
2018-01-21T08:48:31.360Z,1006.19
2018-01-21T08:49:31.407Z,1006.14
2018-01-21T08:50:31.313Z,1006.15
2018-01-21T08:51:31.323Z,1006.15
2018-01-21T08:52:31.272Z,1006.15
2018-01-21T08:53:31.379Z,1006.16
2018-01-21T08:54:31.237Z,1006.20
2018-01-21T08:55:31.222Z,1006.21
2018-01-21T08:56:31.181Z,1006.23
2018-01-21T08:57:31.174Z,1006.29
2018-01-21T08:58:31.136Z,1006.24
2018-01-21T08:59:31.119Z,1006.27
2018-01-21T09:00:31.094Z,1006.34
2018-01-21T09:01:31.072Z,1006.35
2018-01-21T09:02:31.049Z,1006.38
2018-01-21T09:03:31.033Z,1006.39
2018-01-21T09:04:31.012Z,1006.38
2018-01-21T09:05:30.988Z,1006.45
2018-01-21T09:06:30.973Z,1006.46
2018-01-21T09:07:30.941Z,1006.48
2018-01-21T09:08:30.916Z,1006.47
2018-01-21T09:09:30.900Z,1006.50
2018-01-21T09:10:30.877Z,1006.48
2018-01-21T09:11:30.852Z,1006.48
2018-01-21T09:12:30.834Z,1006.49
2018-01-21T09:13:30.810Z,1006.49
2018-01-21T09:14:30.789Z,1006.55
2018-01-21T09:15:30.764Z,1006.54
2018-01-21T09:16:30.738Z,1006.60
2018-01-21T09:17:30.717Z,1006.57
2018-01-21T09:18:30.701Z,1006.62
2018-01-21T09:19:30.682Z,1006.59
2018-01-21T09:20:30.665Z,1006.60
2018-01-21T09:21:30.631Z,1006.61
2018-01-21T09:22:30.612Z,1006.65
2018-01-21T09:23:30.593Z,1006.68
2018-01-21T09:24:30.563Z,1006.70
2018-01-21T09:25:30.545Z,1006.70
2018-01-21T09:26:30.520Z,1006.74
2018-01-21T09:27:30.502Z,1006.75
2018-01-21T09:28:30.478Z,1006.74
2018-01-21T09:29:30.455Z,1006.80
2018-01-21T09:30:30.441Z,1006.84
2018-01-21T09:31:30.431Z,1006.90
2018-01-21T09:32:30.390Z,1006.96
2018-01-21T09:33:30.367Z,1006.96
2018-01-21T09:34:30.349Z,1006.94
2018-01-21T09:35:30.330Z,1006.94
2018-01-21T09:36:30.315Z,1006.97
2018-01-21T09:37:30.280Z,1006.93
2018-01-21T09:38:30.256Z,1006.94
2018-01-21T09:39:30.243Z,1006.94
2018-01-21T09:40:30.215Z,1006.96
2018-01-21T09:41:30.198Z,1007.02
2018-01-21T09:42:30.169Z,1007.02
2018-01-21T09:43:30.150Z,1007.05
2018-01-21T09:44:30.129Z,1007.02
2018-01-21T09:45:30.115Z,1007.07
2018-01-21T09:46:30.088Z,1007.07
2018-01-21T09:47:30.074Z,1007.05
2018-01-21T09:48:30.046Z,1007.04
2018-01-21T09:49:30.023Z,1007.07
2018-01-21T09:50:30.006Z,1007.12
2018-01-21T09:51:29.993Z,1007.15
2018-01-21T09:52:29.960Z,1007.10
2018-01-21T09:53:29.944Z,1007.10
2018-01-21T09:54:29.932Z,1007.08
2018-01-21T09:55:29.893Z,1007.12
2018-01-21T09:56:29.883Z,1007.15
2018-01-21T09:57:29.857Z,1007.19
2018-01-21T09:58:29.831Z,1007.21
2018-01-21T09:59:29.812Z,1007.23
2018-01-21T10:00:29.878Z,1007.20
2018-01-21T10:01:29.771Z,1007.23
2018-01-21T10:02:29.751Z,1007.25
2018-01-21T10:03:29.725Z,1007.28
2018-01-21T10:04:29.717Z,1007.32
2018-01-21T10:05:29.683Z,1007.33
2018-01-21T10:06:29.670Z,1007.36
2018-01-21T10:07:29.645Z,1007.34
2018-01-21T10:08:29.631Z,1007.40
2018-01-21T10:09:29.615Z,1007.46
2018-01-21T10:10:29.586Z,1007.62
2018-01-21T10:11:29.560Z,1008.73
2018-01-21T10:12:29.538Z,1007.90
2018-01-21T10:13:29.522Z,1008.14
2018-01-21T10:14:29.505Z,1008.31
2018-01-21T10:15:29.480Z,1007.82
2018-01-21T10:16:29.465Z,1008.73
2018-01-21T10:17:29.442Z,1008.32
2018-01-21T10:18:29.422Z,1007.92
2018-01-21T10:19:29.406Z,1007.86
2018-01-21T10:20:29.392Z,1007.86
2018-01-21T10:21:29.367Z,1007.84
2018-01-21T10:22:29.353Z,1007.79
2018-01-21T10:23:29.340Z,1007.73
2018-01-21T10:24:29.316Z,1007.73
2018-01-21T10:25:29.297Z,1007.68
2018-01-21T10:26:29.281Z,1007.72
2018-01-21T10:27:29.266Z,1007.75
2018-01-21T10:28:29.250Z,1007.76
2018-01-21T10:29:29.230Z,1007.77
2018-01-21T10:30:29.209Z,1007.77
2018-01-21T10:31:29.191Z,1007.74
2018-01-21T10:32:29.180Z,1007.72
2018-01-21T10:33:29.159Z,1007.77
2018-01-21T10:34:29.141Z,1007.74
2018-01-21T10:35:29.115Z,1007.72
2018-01-21T10:36:29.094Z,1007.73
2018-01-21T10:37:29.089Z,1007.74
2018-01-21T10:38:29.059Z,1007.73
2018-01-21T10:39:29.042Z,1007.75
2018-01-21T10:40:29.022Z,1007.75
2018-01-21T10:41:29.008Z,1007.79
2018-01-21T10:42:28.984Z,1007.81
2018-01-21T10:43:29.004Z,1007.85
2018-01-21T10:44:28.951Z,1007.89
2018-01-21T10:45:28.924Z,1007.84
2018-01-21T10:46:28.903Z,1007.89
2018-01-21T10:47:28.883Z,1007.92
2018-01-21T10:48:28.861Z,1007.92
2018-01-21T10:49:28.855Z,1007.93
2018-01-21T10:50:28.823Z,1007.92
2018-01-21T10:51:28.809Z,1007.94
2018-01-21T10:52:28.784Z,1007.96
2018-01-21T10:53:28.768Z,1007.95
2018-01-21T10:54:28.762Z,1008.01
2018-01-21T10:55:28.740Z,1008.08
2018-01-21T10:56:28.708Z,1008.06
2018-01-21T10:57:28.689Z,1008.05
2018-01-21T10:58:28.672Z,1008.07
2018-01-21T10:59:28.668Z,1008.05
2018-01-21T11:00:28.627Z,1008.04
2018-01-21T11:01:28.612Z,1008.06
2018-01-21T11:02:28.586Z,1008.06
2018-01-21T11:03:28.569Z,1008.06
2018-01-21T11:04:28.548Z,1008.10
2018-01-21T11:05:28.531Z,1008.06
2018-01-21T11:06:28.515Z,1008.08
2018-01-21T11:07:28.482Z,1008.08
2018-01-21T11:08:28.472Z,1008.05
2018-01-21T11:09:28.446Z,1008.05
2018-01-21T11:10:28.429Z,1008.05
2018-01-21T11:11:28.403Z,1008.04
2018-01-21T11:12:28.386Z,1008.00
2018-01-21T11:13:28.367Z,1007.99
2018-01-21T11:14:28.353Z,1008.00
2018-01-21T11:15:28.334Z,1007.99
2018-01-21T11:16:28.312Z,1008.04
2018-01-21T11:17:28.285Z,1008.03
2018-01-21T11:18:28.265Z,1008.03
2018-01-21T11:19:28.247Z,1008.00
2018-01-21T11:20:28.233Z,1008.05
2018-01-21T11:21:28.206Z,1008.08
2018-01-21T11:22:28.187Z,1008.11
2018-01-21T11:23:28.164Z,1008.06
2018-01-21T11:24:28.152Z,1008.09
2018-01-21T11:25:28.132Z,1008.07
2018-01-21T11:26:28.110Z,1008.06
2018-01-21T11:27:28.080Z,1008.12
2018-01-21T11:28:28.062Z,1008.04
2018-01-21T11:29:28.040Z,1008.05
2018-01-21T11:30:28.031Z,1008.08
2018-01-21T11:31:28.001Z,1008.11
2018-01-21T11:32:27.979Z,1008.11
2018-01-21T11:33:27.958Z,1008.11
2018-01-21T11:34:27.942Z,1008.09
2018-01-21T11:35:27.919Z,1008.11
2018-01-21T11:36:27.925Z,1008.10
2018-01-21T11:37:27.878Z,1008.16
2018-01-21T11:38:27.861Z,1008.17
2018-01-21T11:39:27.841Z,1008.18
2018-01-21T11:40:27.816Z,1008.20
2018-01-21T11:41:27.800Z,1008.12
2018-01-21T11:42:27.788Z,1008.13
2018-01-21T11:43:27.757Z,1008.07
2018-01-21T11:44:27.731Z,1008.10
2018-01-21T11:45:27.713Z,1008.08
2018-01-21T11:46:27.703Z,1008.07
2018-01-21T11:47:27.677Z,1008.04
2018-01-21T11:48:27.672Z,1008.02
2018-01-21T11:49:27.636Z,1008.02
2018-01-21T11:50:27.620Z,1008.02
2018-01-21T11:51:27.591Z,1008.02
2018-01-21T11:52:27.572Z,1008.00
2018-01-21T11:53:27.553Z,1008.00
2018-01-21T11:54:27.541Z,1007.97
2018-01-21T11:55:27.512Z,1007.98
2018-01-21T11:56:27.503Z,1008.04
2018-01-21T11:57:27.466Z,1008.06
2018-01-21T11:58:27.445Z,1008.07
2018-01-21T11:59:27.442Z,1008.05
2018-01-21T12:00:27.411Z,1008.05
2018-01-21T12:01:27.391Z,1008.05
2018-01-21T12:02:27.375Z,1008.06
2018-01-21T12:03:27.346Z,1008.07
2018-01-21T12:04:27.330Z,1008.07
2018-01-21T12:05:27.305Z,1008.08
2018-01-21T12:06:27.279Z,1008.09
2018-01-21T12:07:27.261Z,1008.10
2018-01-21T12:08:27.241Z,1008.09
2018-01-21T12:09:27.220Z,1008.14
2018-01-21T12:10:27.200Z,1008.15
2018-01-21T12:11:27.185Z,1008.18
2018-01-21T12:12:27.157Z,1008.15